Time;durP1;ratioP1;P1;durP2;ratioP2;P2;SDS_P1;SDS_P2;PMS_P1;PMS_P2;Temp;Humidity;BMP_temperature;BMP_pressure;BME280_temperature;BME280_humidity;BME280_pressure;Samples;Min_cycle;Max_cycle;Signal;HPM_P1;HPM_P2
2023/10/25 00:00:42;;;;;;;9.60;3.87;;;10.60;99.90;;;;;;5066822;28;20442;-67
2023/10/25 00:03:12;;;;;;;9.70;4.53;;;10.40;99.90;;;;;;5064249;28;20440;-67
2023/10/25 00:05:40;;;;;;;10.37;4.50;;;10.40;99.90;;;;;;5068026;28;20970;-68
2023/10/25 00:08:08;;;;;;;9.73;4.07;;;10.30;99.90;;;;;;5068661;28;21226;-67
2023/10/25 00:10:36;;;;;;;9.80;4.50;;;10.30;99.90;;;;;;5068518;28;20537;-67
2023/10/25 00:13:04;;;;;;;11.07;4.93;;;10.40;99.90;;;;;;5068587;28;20492;-67
2023/10/25 00:15:32;;;;;;;10.40;4.63;;;10.30;99.90;;;;;;5068476;28;20440;-67
2023/10/25 00:18:01;;;;;;;11.10;4.83;;;10.30;99.90;;;;;;5068880;28;20478;-67
2023/10/25 00:20:29;;;;;;;10.10;4.47;;;10.40;99.90;;;;;;5068677;28;20436;-66
2023/10/25 00:22:57;;;;;;;9.43;4.30;;;10.30;99.90;;;;;;5068318;28;20505;-66
2023/10/25 00:25:25;;;;;;;8.53;4.00;;;10.20;99.90;;;;;;5068335;28;20890;-68
2023/10/25 00:27:53;;;;;;;10.50;4.27;;;10.10;99.90;;;;;;5068634;28;20461;-68
2023/10/25 00:30:21;;;;;;;10.93;4.50;;;10.00;99.90;;;;;;5068424;28;20482;-67
2023/10/25 00:32:49;;;;;;;9.90;4.67;;;10.00;99.90;;;;;;5068012;28;20501;-67
2023/10/25 00:35:18;;;;;;;18.50;5.50;;;10.00;99.90;;;;;;5068267;28;20440;-66
2023/10/25 00:37:46;;;;;;;11.43;5.40;;;10.00;99.90;;;;;;5068508;28;20971;-66
2023/10/25 00:40:14;;;;;;;10.00;4.67;;;10.00;99.90;;;;;;5068388;28;20907;-66
2023/10/25 00:42:42;;;;;;;9.73;4.57;;;10.00;99.90;;;;;;5068039;28;20448;-66
2023/10/25 00:45:10;;;;;;;9.90;4.30;;;10.10;99.90;;;;;;5067917;28;20990;-66
2023/10/25 00:47:39;;;;;;;10.23;4.90;;;9.90;99.90;;;;;;5068277;28;20897;-66
2023/10/25 00:50:09;;;;;;;9.60;4.50;;;9.80;99.90;;;;;;5068137;28;20446;-65
2023/10/25 00:52:38;;;;;;;11.33;5.97;;;9.80;99.90;;;;;;5070193;28;20445;-66
2023/10/25 00:55:07;;;;;;;13.10;5.77;;;9.80;99.90;;;;;;5071805;28;20873;-67
2023/10/25 00:57:35;;;;;;;9.87;4.67;;;9.80;99.90;;;;;;5072455;28;20460;-66
2023/10/25 01:00:05;;;;;;;10.07;4.77;;;9.70;99.90;;;;;;5071760;28;20479;-67
2023/10/25 01:02:33;;;;;;;12.20;5.70;;;9.70;99.90;;;;;;5064078;28;20846;-66
2023/10/25 01:05:01;;;;;;;12.33;5.13;;;9.80;99.90;;;;;;5072240;28;20468;-66
2023/10/25 01:07:29;;;;;;;10.10;5.20;;;9.80;99.90;;;;;;5072108;28;20516;-66
2023/10/25 01:09:58;;;;;;;10.13;5.17;;;9.80;99.90;;;;;;5072320;28;20457;-66
2023/10/25 01:12:26;;;;;;;12.77;5.53;;;9.80;99.90;;;;;;5071329;28;20476;-66
2023/10/25 01:14:54;;;;;;;9.03;4.70;;;9.90;99.90;;;;;;5069867;28;20496;-66
2023/10/25 01:17:22;;;;;;;10.60;4.87;;;10.00;99.90;;;;;;5064446;28;20498;-66
2023/10/25 01:19:50;;;;;;;10.50;5.73;;;10.00;99.90;;;;;;5064790;28;20440;-66
2023/10/25 01:22:18;;;;;;;9.30;4.70;;;9.90;99.90;;;;;;5070951;28;20490;-67
2023/10/25 01:24:47;;;;;;;11.17;5.30;;;9.90;99.90;;;;;;5071958;28;21010;-67
2023/10/25 01:27:16;;;;;;;10.87;5.33;;;9.90;99.90;;;;;;5071481;28;20990;-66
2023/10/25 01:29:43;;;;;;;11.43;5.50;;;9.70;99.90;;;;;;5071785;28;20447;-66
2023/10/25 01:32:11;;;;;;;12.87;5.63;;;9.70;99.90;;;;;;5071178;28;20482;-67
2023/10/25 01:34:39;;;;;;;10.33;5.00;;;9.80;99.90;;;;;;5071377;28;20446;-67
2023/10/25 01:37:07;;;;;;;12.47;5.43;;;9.80;99.90;;;;;;5070874;28;20466;-67
2023/10/25 01:39:35;;;;;;;11.27;6.00;;;9.90;99.90;;;;;;5071698;28;20435;-66
2023/10/25 01:42:05;;;;;;;12.27;5.80;;;9.90;99.90;;;;;;5071352;28;20700;-66
2023/10/25 01:44:33;;;;;;;12.60;7.10;;;9.90;99.90;;;;;;5071235;28;20438;-65
2023/10/25 01:47:01;;;;;;;15.73;7.37;;;9.90;99.90;;;;;;5071019;28;20516;-65
2023/10/25 01:49:29;;;;;;;15.07;8.10;;;9.90;99.90;;;;;;5071496;28;20435;-66
2023/10/25 01:51:57;;;;;;;14.20;8.70;;;9.90;99.90;;;;;;5070784;28;20471;-66
2023/10/25 01:54:26;;;;;;;15.10;8.07;;;9.90;99.90;;;;;;5070836;28;22140;-66
2023/10/25 01:56:53;;;;;;;16.50;9.27;;;9.90;99.90;;;;;;5071080;28;20470;-66
2023/10/25 01:59:23;;;;;;;17.27;10.07;;;9.90;99.90;;;;;;5070875;28;20933;-65
2023/10/25 02:01:51;;;;;;;15.77;9.93;;;9.90;99.90;;;;;;5063830;28;20968;-66
2023/10/25 02:04:19;;;;;;;16.43;9.67;;;9.90;99.90;;;;;;5063763;28;20538;-66
2023/10/25 02:06:51;;;;;;;14.80;9.13;;;9.90;99.90;;;;;;5067716;28;20469;-66
2023/10/25 02:09:20;;;;;;;14.13;8.43;;;9.70;99.90;;;;;;5069261;28;20916;-66
2023/10/25 02:11:48;;;;;;;17.57;9.17;;;9.70;99.90;;;;;;5069843;28;20520;-65
2023/10/25 02:14:16;;;;;;;14.30;8.53;;;9.60;99.90;;;;;;5070703;28;20502;-66
2023/10/25 02:16:45;;;;;;;19.80;9.43;;;9.60;99.90;;;;;;5071015;28;20529;-64
2023/10/25 02:19:13;;;;;;;14.47;8.30;;;9.60;99.90;;;;;;5070919;28;20456;-66
2023/10/25 02:21:41;;;;;;;14.90;8.43;;;9.70;99.90;;;;;;5070572;28;20478;-66
2023/10/25 02:24:12;;;;;;;14.60;8.13;;;9.70;99.90;;;;;;5070229;28;20522;-66
2023/10/25 02:26:40;;;;;;;18.13;9.10;;;9.70;99.90;;;;;;5070481;28;20455;-65
2023/10/25 02:29:08;;;;;;;15.30;7.83;;;9.60;99.90;;;;;;5070732;28;20443;-65
2023/10/25 02:31:36;;;;;;;15.90;8.20;;;9.60;99.90;;;;;;5070260;28;20549;-65
2023/10/25 02:34:05;;;;;;;14.60;8.60;;;9.60;99.90;;;;;;5070597;28;20448;-65
2023/10/25 02:36:33;;;;;;;15.00;8.30;;;9.70;99.90;;;;;;5062029;28;20459;-66
2023/10/25 02:39:01;;;;;;;14.43;9.17;;;9.60;99.90;;;;;;5070570;28;20435;-66
2023/10/25 02:41:29;;;;;;;16.23;9.47;;;9.70;99.90;;;;;;5070200;28;20443;-66
2023/10/25 02:43:58;;;;;;;14.30;8.83;;;9.70;99.90;;;;;;5070753;28;20447;-65
2023/10/25 02:46:27;;;;;;;14.10;8.27;;;9.70;99.90;;;;;;5070101;28;20462;-66
2023/10/25 02:48:55;;;;;;;14.87;9.60;;;9.70;99.90;;;;;;5070580;28;20543;-66
2023/10/25 02:51:25;;;;;;;14.40;9.20;;;9.70;99.90;;;;;;5069941;28;20443;-66
2023/10/25 02:53:54;;;;;;;12.07;8.07;;;9.60;99.90;;;;;;5070479;28;20439;-65
2023/10/25 02:56:22;;;;;;;14.60;8.40;;;9.60;99.90;;;;;;5070310;28;20463;-66
2023/10/25 02:58:49;;;;;;;13.60;8.43;;;9.60;99.90;;;;;;5070202;28;20439;-67
2023/10/25 03:01:22;;;;;;;14.60;8.60;;;9.60;99.90;;;;;;5069530;28;20440;-66
2023/10/25 03:03:50;;;;;;;13.77;7.83;;;9.60;99.90;;;;;;5070059;28;20443;-66
2023/10/25 03:06:17;;;;;;;15.53;8.33;;;9.60;99.90;;;;;;5069285;28;20571;-65
2023/10/25 03:08:47;;;;;;;12.00;7.73;;;9.50;99.90;;;;;;5070098;28;20849;-66
2023/10/25 03:11:15;;;;;;;12.50;7.47;;;9.60;99.90;;;;;;5069324;28;20850;-65
2023/10/25 03:13:43;;;;;;;12.63;8.13;;;9.60;99.90;;;;;;5069818;28;20483;-65
2023/10/25 03:16:13;;;;;;;15.20;6.30;;;9.60;99.90;;;;;;5069243;28;20546;-65
2023/10/25 03:18:41;;;;;;;18.53;8.00;;;9.60;99.90;;;;;;5069803;28;21028;-65
2023/10/25 03:21:10;;;;;;;19.83;8.70;;;9.60;99.90;;;;;;5069202;28;21020;-66
2023/10/25 03:23:38;;;;;;;14.50;7.13;;;9.60;99.90;;;;;;5069833;28;20536;-66
2023/10/25 03:26:09;;;;;;;24.13;8.70;;;9.50;99.90;;;;;;5069272;28;20496;-67
2023/10/25 03:28:37;;;;;;;12.77;6.40;;;9.50;99.90;;;;;;5061858;28;20461;-66
2023/10/25 03:31:09;;;;;;;12.70;7.70;;;9.40;99.90;;;;;;5069270;28;20919;-66
2023/10/25 03:33:37;;;;;;;12.73;7.60;;;9.40;99.90;;;;;;5061869;28;20549;-66
2023/10/25 03:36:06;;;;;;;13.20;7.40;;;9.40;99.90;;;;;;5069058;28;20982;-65
2023/10/25 03:38:34;;;;;;;12.33;7.00;;;9.40;99.90;;;;;;5060891;28;20488;-66
2023/10/25 03:41:04;;;;;;;13.73;7.70;;;9.40;99.90;;;;;;5069280;28;20526;-66
2023/10/25 03:43:34;;;;;;;13.77;6.83;;;9.30;99.90;;;;;;5069199;28;20933;-66
2023/10/25 03:46:06;;;;;;;15.80;8.10;;;9.20;99.90;;;;;;5069093;28;20870;-66
2023/10/25 03:48:36;;;;;;;12.27;7.30;;;9.10;99.90;;;;;;5069229;28;20450;-66
2023/10/25 03:51:05;;;;;;;12.93;6.83;;;9.10;99.90;;;;;;5068787;28;20438;-66
2023/10/25 03:53:34;;;;;;;12.53;6.97;;;8.90;99.90;;;;;;5068816;28;20478;-66
2023/10/25 03:56:02;;;;;;;13.33;6.80;;;8.80;99.90;;;;;;5069050;28;20841;-66
2023/10/25 03:58:30;;;;;;;18.37;7.77;;;8.70;99.90;;;;;;5068797;28;20445;-65
2023/10/25 04:01:01;;;;;;;14.93;8.07;;;8.60;99.90;;;;;;5068993;28;20499;-66
2023/10/25 04:03:30;;;;;;;12.80;7.93;;;8.70;99.90;;;;;;5068816;28;20444;-66
2023/10/25 04:05:58;;;;;;;13.17;7.57;;;8.70;99.90;;;;;;5068424;28;20473;-70
2023/10/25 04:08:26;;;;;;;12.20;7.20;;;8.70;99.90;;;;;;5068599;28;20454;-66
2023/10/25 04:10:57;;;;;;;15.40;7.00;;;8.80;99.90;;;;;;5068589;28;20454;-66
2023/10/25 04:13:25;;;;;;;13.60;7.70;;;8.80;99.90;;;;;;5068419;28;20869;-67
2023/10/25 04:15:55;;;;;;;12.90;7.50;;;8.90;99.90;;;;;;5068472;28;20471;-67
2023/10/25 04:18:26;;;;;;;13.83;7.27;;;8.90;99.90;;;;;;5068419;28;20940;-66
2023/10/25 04:20:55;;;;;;;24.83;11.13;;;8.70;99.90;;;;;;5068285;28;20440;-67
2023/10/25 04:23:24;;;;;;;17.63;10.50;;;8.70;99.90;;;;;;5068161;28;20441;-66
2023/10/25 04:25:52;;;;;;;16.73;11.00;;;8.70;99.90;;;;;;5068488;28;20465;-66
2023/10/25 04:28:20;;;;;;;51.90;15.30;;;8.70;99.90;;;;;;5068341;28;20505;-65
2023/10/25 04:30:49;;;;;;;17.27;10.37;;;8.80;99.90;;;;;;5068667;28;20844;-66
2023/10/25 04:33:17;;;;;;;17.37;10.80;;;8.80;99.90;;;;;;5067751;28;21182;-65
2023/10/25 04:35:46;;;;;;;15.90;9.63;;;8.70;99.90;;;;;;5068447;28;20526;-65
2023/10/25 04:38:14;;;;;;;17.30;9.07;;;8.60;99.90;;;;;;5068783;28;20464;-65
2023/10/25 04:40:42;;;;;;;14.77;8.70;;;8.50;99.90;;;;;;5068378;28;20472;-65
2023/10/25 04:43:10;;;;;;;15.80;8.73;;;8.40;99.90;;;;;;5068355;28;20477;-66
2023/10/25 04:45:38;;;;;;;22.00;9.90;;;8.40;99.90;;;;;;5068424;28;20446;-65
2023/10/25 04:48:06;;;;;;;15.23;8.60;;;8.40;99.90;;;;;;5068414;28;20516;-65
2023/10/25 04:50:37;;;;;;;33.47;10.03;;;8.30;99.90;;;;;;5068164;28;20442;-65
2023/10/25 04:53:07;;;;;;;13.87;7.60;;;8.30;99.90;;;;;;5067720;28;20473;-65
2023/10/25 04:55:36;;;;;;;15.13;7.93;;;8.30;99.90;;;;;;5068125;28;20521;-65
2023/10/25 04:58:05;;;;;;;15.13;7.83;;;8.30;99.90;;;;;;5068743;28;20460;-66
2023/10/25 05:00:33;;;;;;;16.07;7.73;;;8.30;99.90;;;;;;5067840;28;20442;-66
2023/10/25 05:03:01;;;;;;;15.57;8.07;;;8.40;99.90;;;;;;5068240;28;20450;-66
2023/10/25 05:05:30;;;;;;;13.33;6.80;;;8.40;99.90;;;;;;5067866;28;20444;-67
2023/10/25 05:07:59;;;;;;;22.10;7.93;;;8.30;99.90;;;;;;5068074;28;20504;-67
2023/10/25 05:10:29;;;;;;;14.33;7.53;;;8.20;99.90;;;;;;5068137;28;20548;-67
2023/10/25 05:12:58;;;;;;;14.23;7.70;;;8.20;99.90;;;;;;5068100;28;20488;-66
2023/10/25 05:15:28;;;;;;;17.83;8.87;;;8.20;99.90;;;;;;5067818;28;20794;-67
2023/10/25 05:17:56;;;;;;;14.27;8.60;;;8.10;99.90;;;;;;5068175;28;20448;-67
2023/10/25 05:20:25;;;;;;;16.47;8.43;;;8.20;99.90;;;;;;5067217;28;20455;-66
2023/10/25 05:22:56;;;;;;;15.67;8.17;;;8.20;99.90;;;;;;5067646;28;20538;-67
2023/10/25 05:25:24;;;;;;;15.10;8.03;;;8.10;99.90;;;;;;5067648;28;20455;-66
2023/10/25 05:27:54;;;;;;;14.23;6.97;;;8.20;99.90;;;;;;5066845;28;20456;-67
2023/10/25 05:30:23;;;;;;;12.47;6.30;;;8.10;99.90;;;;;;5067635;28;20462;-67
2023/10/25 05:32:59;;;;;;;13.93;7.07;;;8.00;99.90;;;;;;5067826;28;20861;-67
2023/10/25 05:35:28;;;;;;;13.47;7.60;;;8.10;99.90;;;;;;5067589;28;20448;-66
2023/10/25 05:37:56;;;;;;;14.33;7.70;;;8.10;99.90;;;;;;5069004;28;20456;-67
2023/10/25 05:40:25;;;;;;;15.90;7.97;;;8.10;99.90;;;;;;5071015;28;20516;-67
2023/10/25 05:42:57;;;;;;;14.73;7.60;;;8.10;99.90;;;;;;5072213;28;20863;-67
2023/10/25 05:45:25;;;;;;;13.73;7.40;;;8.00;99.90;;;;;;5073012;28;20451;-65
2023/10/25 05:47:54;;;;;;;15.00;7.20;;;8.00;99.90;;;;;;5073115;28;20453;-67
2023/10/25 05:50:22;;;;;;;13.90;7.83;;;8.00;99.90;;;;;;5072698;28;20476;-66
2023/10/25 05:52:51;;;;;;;16.70;7.70;;;8.00;99.90;;;;;;5071119;28;20475;-67
2023/10/25 05:55:19;;;;;;;16.73;7.83;;;8.00;99.90;;;;;;5071173;28;20508;-66
2023/10/25 05:57:48;;;;;;;13.73;8.03;;;8.00;99.90;;;;;;5071369;28;20451;-67
2023/10/25 06:00:18;;;;;;;13.23;7.10;;;7.90;99.90;;;;;;5071318;28;20450;-66
2023/10/25 06:02:50;;;;;;;26.10;10.00;;;8.00;99.90;;;;;;5070791;28;20450;-66
2023/10/25 06:05:19;;;;;;;14.20;7.27;;;8.10;99.90;;;;;;5070454;28;20511;-66
2023/10/25 06:07:47;;;;;;;13.40;7.17;;;8.10;99.90;;;;;;5071019;28;20455;-67
2023/10/25 06:10:16;;;;;;;13.37;6.70;;;8.00;99.90;;;;;;5070906;28;20555;-66
2023/10/25 06:12:45;;;;;;;14.17;8.00;;;8.00;99.90;;;;;;5070792;28;20525;-66
2023/10/25 06:15:13;;;;;;;14.70;7.50;;;8.00;99.90;;;;;;5070707;28;20980;-66
2023/10/25 06:17:42;;;;;;;15.57;9.07;;;8.10;99.90;;;;;;5071100;28;20463;-67
2023/10/25 06:20:13;;;;;;;15.00;8.27;;;8.10;99.90;;;;;;5071376;28;20518;-67
2023/10/25 06:22:41;;;;;;;18.57;9.40;;;8.10;99.90;;;;;;5070699;28;20489;-66
2023/10/25 06:25:10;;;;;;;17.17;9.17;;;8.10;99.90;;;;;;5066422;28;20455;-66
2023/10/25 06:27:41;;;;;;;18.70;10.03;;;8.10;99.90;;;;;;5065324;28;20546;-66
2023/10/25 06:30:09;;;;;;;18.87;11.23;;;8.10;99.90;;;;;;5071773;28;20447;-66
2023/10/25 06:32:37;;;;;;;25.40;11.40;;;8.20;99.90;;;;;;5070242;28;20467;-66
2023/10/25 06:35:07;;;;;;;24.47;12.00;;;8.30;99.90;;;;;;5068466;28;20478;-66
2023/10/25 06:37:36;;;;;;;17.80;10.70;;;8.30;99.90;;;;;;5070842;28;20870;-66
2023/10/25 06:40:05;;;;;;;13.77;7.93;;;8.40;99.90;;;;;;5070617;28;20993;-66
2023/10/25 06:42:33;;;;;;;15.70;8.07;;;8.40;99.90;;;;;;5069798;28;20484;-66
2023/10/25 06:45:02;;;;;;;16.50;8.30;;;8.30;99.90;;;;;;5070183;28;20452;-67
2023/10/25 06:47:30;;;;;;;14.13;8.30;;;8.10;99.90;;;;;;5070042;28;20468;-67
2023/10/25 06:49:59;;;;;;;15.77;9.70;;;8.10;99.90;;;;;;5068652;28;21119;-66
2023/10/25 06:52:29;;;;;;;14.47;7.93;;;8.10;99.90;;;;;;5061821;28;20461;-66
2023/10/25 06:54:57;;;;;;;16.63;8.70;;;8.10;99.90;;;;;;5066038;28;20492;-66
2023/10/25 06:57:25;;;;;;;16.73;9.13;;;8.20;99.90;;;;;;5069009;28;20477;-66
2023/10/25 06:59:54;;;;;;;16.80;8.90;;;8.30;99.90;;;;;;5069749;28;20455;-66
2023/10/25 07:02:33;;;;;;;15.30;8.60;;;8.40;99.90;;;;;;5068798;28;20458;-67
2023/10/25 07:05:09;;;;;;;18.20;9.10;;;8.50;99.90;;;;;;5068747;28;20446;-67
2023/10/25 07:07:40;;;;;;;15.10;8.57;;;8.70;99.90;;;;;;5068980;28;20927;-67
2023/10/25 07:10:09;;;;;;;13.60;7.93;;;8.90;99.90;;;;;;5069866;28;21118;-66
2023/10/25 07:12:37;;;;;;;13.50;7.80;;;9.10;99.90;;;;;;5069437;28;20445;-66
2023/10/25 07:15:06;;;;;;;15.50;7.93;;;9.10;99.90;;;;;;5069546;28;20478;-67
2023/10/25 07:17:34;;;;;;;13.17;7.33;;;9.20;99.90;;;;;;5069466;28;20553;-67
2023/10/25 07:20:02;;;;;;;13.03;8.17;;;9.30;99.90;;;;;;5069854;28;20451;-67
2023/10/25 07:22:30;;;;;;;12.90;6.97;;;9.30;99.90;;;;;;5069247;28;21121;-67
2023/10/25 07:25:00;;;;;;;14.40;7.10;;;9.30;99.90;;;;;;5069680;28;20441;-66
2023/10/25 07:27:28;;;;;;;11.80;7.00;;;9.40;99.90;;;;;;5069430;28;20463;-67
2023/10/25 07:29:56;;;;;;;13.50;7.27;;;9.50;99.90;;;;;;5069092;28;20986;-66
2023/10/25 07:32:24;;;;;;;16.47;8.17;;;9.70;99.90;;;;;;5069030;28;20461;-67
2023/10/25 07:34:52;;;;;;;13.80;7.60;;;9.80;99.90;;;;;;5068792;28;20485;-67
2023/10/25 07:37:20;;;;;;;13.70;7.30;;;9.90;99.90;;;;;;5069183;28;20537;-67
2023/10/25 07:39:48;;;;;;;11.80;7.20;;;10.10;99.90;;;;;;5069513;28;20812;-66
2023/10/25 07:42:17;;;;;;;15.07;7.00;;;10.40;99.90;;;;;;5069115;28;20509;-67
2023/10/25 07:44:45;;;;;;;13.90;7.83;;;10.60;99.90;;;;;;5061571;28;21017;-66
2023/10/25 07:47:14;;;;;;;14.73;7.20;;;10.70;99.90;;;;;;5069313;28;20482;-66
2023/10/25 07:49:45;;;;;;;15.80;7.60;;;10.90;99.90;;;;;;5069323;28;20503;-66
2023/10/25 07:52:13;;;;;;;12.70;7.30;;;11.00;99.90;;;;;;5069122;28;20531;-67
2023/10/25 07:54:41;;;;;;;13.17;7.63;;;11.00;99.90;;;;;;5060815;28;20516;-67
2023/10/25 07:57:10;;;;;;;12.90;6.67;;;11.00;99.90;;;;;;5068782;28;20472;-67
2023/10/25 07:59:41;;;;;;;12.53;6.50;;;11.00;99.90;;;;;;5068703;28;20446;-67
2023/10/25 08:02:09;;;;;;;13.57;8.05;;;11.00;99.90;;;;;;5066772;28;20518;-65
2023/10/25 08:04:37;;;;;;;13.37;7.10;;;10.90;99.90;;;;;;5068931;28;20208;-66
2023/10/25 08:07:05;;;;;;;12.20;6.00;;;10.70;99.90;;;;;;5069077;28;20474;-66
2023/10/25 08:09:35;;;;;;;12.57;7.47;;;10.60;99.90;;;;;;5068967;28;20449;-66
2023/10/25 08:12:03;;;;;;;11.93;6.90;;;10.60;99.90;;;;;;5068802;28;20447;-67
2023/10/25 08:14:31;;;;;;;10.93;6.10;;;10.70;99.90;;;;;;5067411;28;20481;-66
2023/10/25 08:17:00;;;;;;;11.53;7.30;;;10.80;99.90;;;;;;5068035;28;20472;-66
2023/10/25 08:19:28;;;;;;;11.63;6.50;;;10.90;99.90;;;;;;5067967;28;20556;-66
2023/10/25 08:21:56;;;;;;;12.57;7.37;;;11.00;99.90;;;;;;5068454;28;20936;-67
2023/10/25 08:24:24;;;;;;;12.17;6.57;;;11.20;99.90;;;;;;5068541;28;20532;-67
2023/10/25 08:26:55;;;;;;;10.23;5.63;;;11.30;99.90;;;;;;5068258;28;20481;-67
2023/10/25 08:29:23;;;;;;;12.33;6.07;;;11.50;99.90;;;;;;5068669;28;20497;-67
2023/10/25 08:31:52;;;;;;;10.77;5.83;;;11.60;99.90;;;;;;5068033;28;20540;-67
2023/10/25 08:34:22;;;;;;;11.40;4.80;;;11.80;99.90;;;;;;5068058;28;20453;-67
2023/10/25 08:36:52;;;;;;;9.43;4.60;;;12.00;99.90;;;;;;5068366;28;20481;-67
2023/10/25 08:39:21;;;;;;;9.27;4.77;;;12.20;99.90;;;;;;5068542;28;20476;-66
2023/10/25 08:41:52;;;;;;;12.27;4.70;;;12.20;99.90;;;;;;5068254;28;20464;-67
2023/10/25 08:44:20;;;;;;;8.77;4.00;;;12.20;99.90;;;;;;5068168;28;20987;-67
2023/10/25 08:46:51;;;;;;;10.10;3.90;;;12.40;99.90;;;;;;5068425;28;20467;-67
2023/10/25 08:49:19;;;;;;;8.30;4.10;;;12.40;99.90;;;;;;5068367;28;21121;-67
2023/10/25 08:51:49;;;;;;;9.67;3.63;;;12.50;99.90;;;;;;5068158;28;20445;-67
2023/10/25 08:54:20;;;;;;;8.63;3.00;;;12.70;99.90;;;;;;5068394;28;21014;-67
2023/10/25 08:56:48;;;;;;;8.03;3.20;;;12.70;99.90;;;;;;5060800;28;21341;-67
2023/10/25 08:59:17;;;;;;;8.87;3.47;;;12.80;99.90;;;;;;5068794;28;20452;-63
2023/10/25 09:01:45;;;;;;;8.57;3.60;;;12.70;99.90;;;;;;5067948;28;20950;-65
2023/10/25 09:04:13;;;;;;;8.57;3.40;;;12.50;99.90;;;;;;5068026;28;20447;-65
2023/10/25 09:06:41;;;;;;;7.93;3.00;;;12.60;99.90;;;;;;5068026;28;20466;-65
2023/10/25 09:09:11;;;;;;;8.10;2.60;;;12.60;99.90;;;;;;5068300;28;20542;-65
2023/10/25 09:11:41;;;;;;;8.00;3.00;;;12.60;99.90;;;;;;5067607;28;20451;-65
2023/10/25 09:14:10;;;;;;;8.30;3.10;;;12.70;99.90;;;;;;5070994;28;20478;-66
2023/10/25 09:16:42;;;;;;;7.20;2.70;;;12.80;99.90;;;;;;5072033;28;20497;-66
2023/10/25 09:19:10;;;;;;;8.43;2.90;;;12.80;99.90;;;;;;5072137;28;20958;-66
2023/10/25 09:21:38;;;;;;;9.47;4.23;;;12.80;99.90;;;;;;5071600;28;20450;-66
2023/10/25 09:24:09;;;;;;;7.00;2.40;;;12.80;99.90;;;;;;5072040;28;20450;-66
2023/10/25 09:26:40;;;;;;;7.50;2.57;;;12.70;99.90;;;;;;5071517;28;21045;-66
2023/10/25 09:29:11;;;;;;;9.63;3.33;;;12.60;99.90;;;;;;5071478;28;20955;-65
2023/10/25 09:31:39;;;;;;;8.77;3.67;;;12.60;99.90;;;;;;5071296;28;20910;-67
2023/10/25 09:34:09;;;;;;;10.17;3.80;;;12.40;99.90;;;;;;5071601;28;20451;-66
2023/10/25 09:36:37;;;;;;;8.30;3.60;;;12.40;99.90;;;;;;5071339;28;20492;-66
2023/10/25 09:39:06;;;;;;;8.40;3.43;;;12.40;99.90;;;;;;5071773;28;20447;-66
2023/10/25 09:41:39;;;;;;;9.20;3.73;;;12.40;99.90;;;;;;5071174;28;20457;-66
2023/10/25 09:44:17;;;;;;;9.07;3.77;;;12.40;99.90;;;;;;5071462;28;20456;-66
2023/10/25 09:46:47;;;;;;;9.20;3.93;;;12.40;99.90;;;;;;5071669;28;20892;-66
2023/10/25 09:49:16;;;;;;;9.50;3.80;;;12.30;99.90;;;;;;5071473;28;20451;-66
2023/10/25 09:51:54;;;;;;;8.63;4.00;;;12.40;99.90;;;;;;5070996;28;20450;-66
2023/10/25 09:54:29;;;;;;;8.67;3.93;;;12.30;99.90;;;;;;5071025;28;20453;-66
2023/10/25 09:57:00;;;;;;;8.67;3.90;;;12.30;99.90;;;;;;5071324;28;20542;-66
2023/10/25 09:59:30;;;;;;;9.27;3.13;;;12.30;99.90;;;;;;5071742;28;20458;-66
2023/10/25 10:02:00;;;;;;;9.70;3.07;;;12.30;99.90;;;;;;5071617;28;20444;-65
2023/10/25 10:04:39;;;;;;;8.20;2.97;;;12.50;99.90;;;;;;5070984;28;20431;-65
2023/10/25 10:07:14;;;;;;;8.10;3.30;;;12.60;99.90;;;;;;5071149;28;20467;-66
2023/10/25 10:09:47;;;;;;;8.60;3.33;;;12.70;99.90;;;;;;5071058;28;20435;-66
2023/10/25 10:12:17;;;;;;;9.17;3.70;;;12.80;99.90;;;;;;5071046;28;20442;-65
2023/10/25 10:14:45;;;;;;;8.60;3.20;;;12.80;99.90;;;;;;5070747;28;20439;-65
2023/10/25 10:17:14;;;;;;;8.30;3.47;;;12.80;99.90;;;;;;5070978;28;20511;-66
2023/10/25 10:19:44;;;;;;;8.10;3.33;;;12.90;99.90;;;;;;5070394;28;20454;-66
2023/10/25 10:22:14;;;;;;;7.70;2.70;;;12.80;99.90;;;;;;5070770;28;20972;-67
2023/10/25 10:24:43;;;;;;;8.30;2.60;;;12.90;99.90;;;;;;5069820;28;20443;-66
2023/10/25 10:27:13;;;;;;;8.20;2.77;;;12.90;99.90;;;;;;5070941;28;20545;-66
2023/10/25 10:29:43;;;;;;;7.40;2.20;;;12.90;99.90;;;;;;5071049;28;20508;-66
2023/10/25 10:32:11;;;;;;;7.57;2.23;;;13.00;99.90;;;;;;5070391;28;20441;-66
2023/10/25 10:34:44;;;;;;;7.00;1.93;;;13.00;99.90;;;;;;5070793;28;20454;-66
2023/10/25 10:37:14;;;;;;;8.13;3.13;;;13.00;99.90;;;;;;5070762;28;20976;-68
2023/10/25 10:40:14;;;;;;;8.27;2.80;;;13.00;99.90;;;;;;5070959;28;20883;-65
2023/10/25 10:42:43;;;;;;;8.47;3.37;;;12.90;99.90;;;;;;5070361;28;20882;-66
2023/10/25 10:45:14;;;;;;;7.77;2.60;;;13.10;99.90;;;;;;5071072;28;20451;-66
2023/10/25 10:47:44;;;;;;;9.00;2.60;;;13.30;99.90;;;;;;5070588;28;20459;-65
2023/10/25 10:50:14;;;;;;;7.83;2.40;;;13.50;99.90;;;;;;5070636;28;20503;-65
2023/10/25 10:52:43;;;;;;;7.50;1.83;;;13.70;99.90;;;;;;5069982;28;20440;-66
2023/10/25 10:55:14;;;;;;;8.60;2.30;;;13.90;99.90;;;;;;5070314;28;20443;-66
2023/10/25 10:57:42;;;;;;;6.80;2.00;;;14.00;99.90;;;;;;5069675;28;20486;-66
2023/10/25 11:00:32;;;;;;;7.37;1.67;;;14.10;99.90;;;;;;5070115;28;20533;-66
2023/10/25 11:03:02;;;;;;;7.03;2.40;;;14.20;99.90;;;;;;5069966;28;20494;-66
2023/10/25 11:05:37;;;;;;;7.80;1.83;;;14.30;99.90;;;;;;5069570;28;20457;-65
2023/10/25 11:08:10;;;;;;;8.10;2.50;;;14.40;99.90;;;;;;5069154;28;20860;-66
2023/10/25 11:10:38;;;;;;;6.73;1.80;;;14.40;99.90;;;;;;5069330;28;20455;-65
2023/10/25 11:13:08;;;;;;;9.00;1.70;;;14.40;99.90;;;;;;5069617;28;20489;-66
2023/10/25 11:15:38;;;;;;;6.90;1.80;;;14.20;99.90;;;;;;5069501;28;20442;-66
2023/10/25 11:18:08;;;;;;;8.43;1.80;;;14.30;99.90;;;;;;5069613;28;20435;-66
2023/10/25 11:20:36;;;;;;;7.27;1.80;;;14.30;99.90;;;;;;5069764;28;20451;-67
2023/10/25 11:23:04;;;;;;;7.93;1.77;;;14.20;99.90;;;;;;5068504;28;20948;-67
2023/10/25 11:25:32;;;;;;;6.40;1.50;;;14.10;99.90;;;;;;5066054;28;20443;-67
2023/10/25 11:28:00;;;;;;;7.23;2.20;;;14.20;99.90;;;;;;5053310;28;20439;-67
2023/10/25 11:30:30;;;;;;;8.00;2.20;;;14.30;99.90;;;;;;5053401;28;20474;-66
2023/10/25 11:32:59;;;;;;;8.17;2.73;;;14.50;99.90;;;;;;5052469;28;20455;-66
2023/10/25 11:35:28;;;;;;;7.40;1.80;;;14.80;99.90;;;;;;5052934;28;20453;-65
2023/10/25 11:37:58;;;;;;;7.03;1.67;;;15.40;99.90;;;;;;5053600;28;20572;-67
2023/10/25 11:40:38;;;;;;;7.87;1.60;;;15.80;99.90;;;;;;5053405;28;20444;-66
2023/10/25 11:43:08;;;;;;;6.77;1.50;;;16.20;99.90;;;;;;5050949;28;20440;-66
2023/10/25 11:45:37;;;;;;;6.40;1.03;;;16.40;99.90;;;;;;5054171;28;20448;-67
2023/10/25 11:48:08;;;;;;;7.30;1.27;;;16.50;99.90;;;;;;5052144;28;20472;-66
2023/10/25 11:50:36;;;;;;;6.73;0.90;;;16.70;99.90;;;;;;5054424;28;20471;-66
2023/10/25 11:53:04;;;;;;;6.20;1.17;;;16.70;99.90;;;;;;5052610;28;20451;-67
2023/10/25 11:55:32;;;;;;;7.07;1.20;;;16.70;99.90;;;;;;5053713;28;20448;-67
2023/10/25 11:58:01;;;;;;;6.40;1.40;;;16.70;99.90;;;;;;5052420;28;20556;-67
2023/10/25 12:00:30;;;;;;;6.40;1.27;;;16.70;99.90;;;;;;5053084;28;20446;-67
2023/10/25 12:02:57;;;;;;;7.03;1.40;;;16.80;99.90;;;;;;5052655;28;20459;-63
2023/10/25 12:05:27;;;;;;;6.90;1.40;;;17.20;99.90;;;;;;5050690;28;20536;-64
2023/10/25 12:07:55;;;;;;;6.80;1.33;;;17.40;99.90;;;;;;5053217;28;20447;-66
2023/10/25 12:10:24;;;;;;;6.30;1.30;;;17.60;99.90;;;;;;5052146;28;20869;-65
2023/10/25 12:12:52;;;;;;;6.20;1.10;;;17.60;99.90;;;;;;5058283;28;20518;-66
2023/10/25 12:15:20;;;;;;;6.97;1.30;;;17.30;99.90;;;;;;5051880;28;21003;-65
2023/10/25 12:17:48;;;;;;;10.10;1.13;;;17.00;99.90;;;;;;5053881;28;20482;-65
2023/10/25 12:20:16;;;;;;;7.97;1.80;;;16.70;99.90;;;;;;5052258;28;20443;-65
2023/10/25 12:22:56;;;;;;;6.43;1.10;;;16.40;99.90;;;;;;5060873;28;20450;-65
2023/10/25 12:25:25;;;;;;;7.73;1.13;;;16.20;99.90;;;;;;5059976;28;20826;-66
2023/10/25 12:27:53;;;;;;;7.13;1.20;;;16.00;99.90;;;;;;5062574;28;20514;-65
2023/10/25 12:30:22;;;;;;;6.40;1.40;;;15.80;99.90;;;;;;5060187;28;20464;-65
2023/10/25 12:32:52;;;;;;;6.57;1.40;;;15.70;99.90;;;;;;5061829;28;20546;-65
2023/10/25 12:35:20;;;;;;;6.67;0.93;;;15.60;99.90;;;;;;5059073;28;20451;-65
2023/10/25 12:37:48;;;;;;;8.70;1.47;;;15.60;99.90;;;;;;5055829;28;20493;-66
2023/10/25 12:40:17;;;;;;;6.97;1.10;;;15.50;99.90;;;;;;5053298;28;20443;-66
2023/10/25 12:42:45;;;;;;;6.50;1.00;;;15.60;99.90;;;;;;5062122;28;20927;-65
2023/10/25 12:45:13;;;;;;;6.70;1.20;;;15.60;99.90;;;;;;5057809;28;20920;-65
2023/10/25 12:47:41;;;;;;;7.30;0.97;;;15.80;99.90;;;;;;5063970;28;20463;-65
2023/10/25 12:50:10;;;;;;;7.63;1.00;;;15.90;99.90;;;;;;5062424;28;20443;-65
2023/10/25 12:52:38;;;;;;;6.93;1.20;;;15.90;99.90;;;;;;5061029;28;20480;-63
2023/10/25 12:55:06;;;;;;;6.57;1.40;;;16.00;99.90;;;;;;5060457;28;20861;-65